createdAt,value
2018-02-19T00:01:40.654Z,3.52
2018-02-19T00:04:43.139Z,3.48
2018-02-19T00:07:45.113Z,3.54
2018-02-19T00:10:47.051Z,3.60
2018-02-19T00:13:49.029Z,3.39
2018-02-19T00:16:50.970Z,3.54
2018-02-19T00:19:52.960Z,3.57
2018-02-19T00:22:54.950Z,3.45
2018-02-19T00:25:56.916Z,3.55
2018-02-19T00:28:59.067Z,3.58
2018-02-19T00:32:01.023Z,3.49
2018-02-19T00:35:03.017Z,3.36
2018-02-19T00:38:04.976Z,3.25
2018-02-19T00:41:06.943Z,3.24
2018-02-19T00:44:08.906Z,3.19
2018-02-19T00:47:10.850Z,3.33
2018-02-19T00:50:12.831Z,3.41
2018-02-19T00:53:14.813Z,3.53
2018-02-19T00:56:16.778Z,3.41
2018-02-19T00:59:18.755Z,3.32
2018-02-19T01:02:20.691Z,3.29
2018-02-19T01:05:22.725Z,3.23
2018-02-19T01:08:24.750Z,3.14
2018-02-19T01:11:26.699Z,3.04
2018-02-19T01:14:28.682Z,2.93
2018-02-19T01:17:30.632Z,3.12
2018-02-19T01:20:32.586Z,3.03
2018-02-19T01:23:34.578Z,3.11
2018-02-19T01:26:36.511Z,3.18
2018-02-19T01:29:38.506Z,3.18
2018-02-19T01:32:40.494Z,3.31
2018-02-19T01:35:42.518Z,3.33
2018-02-19T01:38:44.486Z,3.24
2018-02-19T01:41:46.466Z,3.11
2018-02-19T01:44:48.448Z,3.16
2018-02-19T01:47:50.415Z,3.09
2018-02-19T01:50:52.369Z,3.25
2018-02-19T01:53:54.425Z,3.25
2018-02-19T01:56:56.360Z,3.28
2018-02-19T01:59:58.355Z,3.26
2018-02-19T02:03:00.342Z,3.17
2018-02-19T02:06:02.308Z,3.05
2018-02-19T02:09:04.270Z,2.88
2018-02-19T02:12:06.237Z,2.94
2018-02-19T02:15:08.207Z,2.94
2018-02-19T02:18:10.177Z,2.83
2018-02-19T02:21:12.193Z,2.72
2018-02-19T02:24:14.085Z,2.79
2018-02-19T02:27:16.069Z,2.88
2018-02-19T02:30:18.030Z,2.86
2018-02-19T02:33:19.996Z,2.98
2018-02-19T02:36:21.967Z,2.97
2018-02-19T02:39:24.000Z,3.08
2018-02-19T02:42:25.999Z,3.06
2018-02-19T02:45:28.084Z,2.90
2018-02-19T02:48:30.025Z,2.97
2018-02-19T02:51:32.035Z,2.87
2018-02-19T02:54:34.071Z,2.89
2018-02-19T02:57:36.036Z,2.80
2018-02-19T03:00:38.027Z,2.81
2018-02-19T03:03:39.959Z,2.72
2018-02-19T03:06:42.004Z,2.65
2018-02-19T03:09:43.992Z,2.65
2018-02-19T03:12:46.030Z,2.57
2018-02-19T03:15:48.021Z,2.56
2018-02-19T03:18:50.026Z,2.40
2018-02-19T03:21:51.979Z,2.43
2018-02-19T03:24:53.997Z,2.33
2018-02-19T03:27:56.014Z,2.34
2018-02-19T03:30:57.975Z,2.10
2018-02-19T03:33:59.975Z,2.02
2018-02-19T03:37:02.037Z,1.93
2018-02-19T03:40:03.975Z,1.79
2018-02-19T03:43:06.162Z,1.83
2018-02-19T03:46:08.117Z,1.74
2018-02-19T03:49:10.084Z,1.66
2018-02-19T03:52:12.259Z,1.54
2018-02-19T03:55:14.219Z,1.52
2018-02-19T03:58:16.177Z,1.28
2018-02-19T04:01:18.144Z,1.25
2018-02-19T04:04:20.115Z,1.29
2018-02-19T04:07:22.084Z,1.57
2018-02-19T04:10:24.059Z,1.62
2018-02-19T04:13:26.007Z,1.59
2018-02-19T04:16:27.973Z,1.31
2018-02-19T04:19:29.967Z,1.29
2018-02-19T04:22:31.934Z,1.32
2018-02-19T04:25:33.854Z,1.25
2018-02-19T04:28:35.858Z,1.15
2018-02-19T04:31:37.830Z,1.41
2018-02-19T04:34:39.783Z,1.50
2018-02-19T04:37:41.791Z,1.23
2018-02-19T04:40:43.824Z,1.22
2018-02-19T04:43:45.811Z,1.21
2018-02-19T04:46:47.808Z,1.17
2018-02-19T04:49:49.827Z,1.08
2018-02-19T04:52:51.806Z,1.11
2018-02-19T04:55:53.943Z,1.08
2018-02-19T04:58:55.945Z,0.94
2018-02-19T05:01:57.897Z,0.89
2018-02-19T05:04:59.882Z,0.94
2018-02-19T05:08:02.038Z,0.98
2018-02-19T05:11:04.021Z,0.94
2018-02-19T05:14:05.980Z,0.96
2018-02-19T05:17:07.972Z,0.87
2018-02-19T05:20:10.001Z,0.84
2018-02-19T05:23:11.982Z,0.87
2018-02-19T05:26:13.920Z,0.89
2018-02-19T05:29:15.901Z,0.95
2018-02-19T05:32:17.873Z,0.84
2018-02-19T05:35:19.848Z,0.81
2018-02-19T05:38:21.775Z,0.75
2018-02-19T05:41:23.799Z,0.70
2018-02-19T05:44:25.847Z,0.70
2018-02-19T05:47:27.802Z,0.60
2018-02-19T05:50:29.765Z,0.57
2018-02-19T05:53:31.763Z,0.63
2018-02-19T05:56:33.815Z,0.83
2018-02-19T05:59:35.817Z,0.76
2018-02-19T06:02:37.716Z,0.76
2018-02-19T06:05:39.705Z,0.81
2018-02-19T06:08:41.662Z,0.98
2018-02-19T06:11:43.714Z,1.12
2018-02-19T06:14:45.674Z,1.11
2018-02-19T06:17:47.616Z,1.02
2018-02-19T06:20:49.622Z,0.96
2018-02-19T06:23:51.623Z,1.20
2018-02-19T06:26:53.587Z,1.16
2018-02-19T06:29:55.593Z,1.17
2018-02-19T06:32:57.621Z,1.13
2018-02-19T06:35:59.661Z,1.02
2018-02-19T06:39:01.756Z,1.07
2018-02-19T06:42:03.711Z,1.11
2018-02-19T06:45:05.689Z,1.24
2018-02-19T06:48:07.638Z,1.33
2018-02-19T06:51:09.754Z,1.32
2018-02-19T06:54:11.764Z,1.21
2018-02-19T06:57:13.733Z,1.22
2018-02-19T07:00:15.733Z,1.29
2018-02-19T07:03:17.660Z,1.34
2018-02-19T07:06:19.662Z,1.18
2018-02-19T07:09:21.617Z,1.11
2018-02-19T07:12:23.558Z,0.95
2018-02-19T07:15:25.672Z,1.09
2018-02-19T07:18:27.732Z,1.03
2018-02-19T07:21:29.702Z,1.05
2018-02-19T07:24:31.753Z,1.07
2018-02-19T07:27:33.720Z,1.31
2018-02-19T07:30:35.698Z,1.18
2018-02-19T07:33:37.667Z,1.14
2018-02-19T07:36:39.752Z,1.07
2018-02-19T07:39:41.812Z,1.21
2018-02-19T07:42:43.758Z,1.28
2018-02-19T07:45:45.770Z,1.18
2018-02-19T07:48:47.887Z,1.24
2018-02-19T07:51:49.947Z,1.43
2018-02-19T07:54:52.231Z,1.45
2018-02-19T07:57:54.195Z,1.43
2018-02-19T08:00:56.252Z,1.44
2018-02-19T08:03:58.230Z,1.34
2018-02-19T08:07:00.222Z,1.49
2018-02-19T08:10:02.141Z,1.62
2018-02-19T08:13:04.063Z,1.62
2018-02-19T08:16:06.092Z,1.59
2018-02-19T08:19:08.064Z,1.49
2018-02-19T08:22:10.130Z,1.56
2018-02-19T08:25:12.124Z,1.66
2018-02-19T08:28:14.159Z,1.62
2018-02-19T08:31:16.172Z,1.86
2018-02-19T08:34:18.211Z,1.80
2018-02-19T08:37:20.146Z,1.80
2018-02-19T08:40:22.089Z,1.84
2018-02-19T08:43:24.100Z,1.91
2018-02-19T08:46:26.203Z,1.96
2018-02-19T08:49:28.225Z,1.89
2018-02-19T08:52:30.187Z,1.95
2018-02-19T08:55:32.190Z,1.90
2018-02-19T08:58:34.231Z,1.96
2018-02-19T09:01:36.226Z,2.01
2018-02-19T09:04:38.166Z,1.94
2018-02-19T09:07:40.143Z,1.98
2018-02-19T09:10:42.206Z,1.96
2018-02-19T09:13:44.172Z,2.20
2018-02-19T09:16:46.155Z,2.31
2018-02-19T09:19:48.110Z,2.42
2018-02-19T09:22:50.085Z,2.29
2018-02-19T09:25:52.051Z,2.34
2018-02-19T09:28:54.054Z,2.34
2018-02-19T09:31:56.006Z,2.45
2018-02-19T09:34:58.041Z,2.40
2018-02-19T09:38:00.026Z,2.25
2018-02-19T09:41:01.962Z,2.32
2018-02-19T09:44:03.939Z,2.37
2018-02-19T09:47:05.870Z,2.44
2018-02-19T09:50:07.873Z,2.55
2018-02-19T09:53:09.815Z,2.75
2018-02-19T09:56:11.821Z,2.76
2018-02-19T09:59:13.769Z,2.73
2018-02-19T10:02:15.747Z,2.71
2018-02-19T10:05:17.692Z,2.72
2018-02-19T10:08:19.687Z,2.79
2018-02-19T10:11:21.636Z,2.62
2018-02-19T10:14:23.631Z,2.68
2018-02-19T10:17:25.599Z,2.79
2018-02-19T10:20:27.616Z,3.05
2018-02-19T10:23:29.610Z,3.09
2018-02-19T10:26:31.587Z,3.09
2018-02-19T10:29:33.522Z,3.16
2018-02-19T10:32:35.535Z,3.01
2018-02-19T10:35:37.557Z,3.08
2018-02-19T10:38:39.571Z,3.08
2018-02-19T10:41:41.523Z,3.00
2018-02-19T10:44:43.528Z,3.08
2018-02-19T10:47:45.418Z,3.02
2018-02-19T10:50:47.434Z,2.88
2018-02-19T10:53:49.462Z,2.96
2018-02-19T10:56:51.400Z,3.09
2018-02-19T10:59:53.408Z,3.15
2018-02-19T11:02:55.482Z,3.19
2018-02-19T11:05:57.432Z,3.19
2018-02-19T11:08:59.381Z,3.22
2018-02-19T11:12:01.368Z,3.37
2018-02-19T11:15:03.326Z,3.32
2018-02-19T11:18:05.332Z,3.48
2018-02-19T11:21:07.307Z,3.40
2018-02-19T11:24:09.284Z,3.39
2018-02-19T11:27:11.303Z,3.53
2018-02-19T11:30:13.414Z,3.66
2018-02-19T11:33:15.418Z,3.81
2018-02-19T11:36:17.339Z,3.76
2018-02-19T11:39:41.461Z,3.97
2018-02-19T11:42:44.176Z,3.77
2018-02-19T11:45:46.158Z,3.75
2018-02-19T11:48:48.114Z,3.71
2018-02-19T11:51:50.962Z,3.80
2018-02-19T11:54:52.950Z,3.85
2018-02-19T11:57:55.040Z,3.82
2018-02-19T12:00:56.981Z,3.66
2018-02-19T12:03:58.975Z,3.56
2018-02-19T12:07:00.942Z,3.46
2018-02-19T12:10:02.906Z,3.54
2018-02-19T12:13:04.880Z,3.61
2018-02-19T12:16:06.841Z,3.54
2018-02-19T12:19:08.782Z,3.50
2018-02-19T12:22:10.759Z,3.37
2018-02-19T12:25:12.734Z,3.35
2018-02-19T12:28:14.729Z,3.25
2018-02-19T12:31:16.746Z,3.31
2018-02-19T12:34:18.739Z,3.28
2018-02-19T12:37:20.703Z,3.30
2018-02-19T12:40:22.670Z,3.40
2018-02-19T12:43:24.644Z,3.37
2018-02-19T12:49:58.379Z,3.40
2018-02-19T12:53:00.485Z,3.43
2018-02-19T12:56:02.478Z,3.56
2018-02-19T12:59:04.691Z,3.43
2018-02-19T13:02:06.639Z,3.57
2018-02-19T13:05:10.358Z,3.54
2018-02-19T13:08:12.350Z,3.53
2018-02-19T13:11:14.280Z,3.47
2018-02-19T13:14:16.259Z,3.39
2018-02-19T13:17:18.211Z,3.36
2018-02-19T13:20:20.184Z,3.43
2018-02-19T13:23:22.140Z,3.47
2018-02-19T13:26:24.093Z,3.43
2018-02-19T13:29:27.305Z,3.28
2018-02-19T13:32:29.298Z,3.40
2018-02-19T13:35:31.312Z,3.16
2018-02-19T13:38:33.325Z,3.45
2018-02-19T13:41:35.266Z,3.42
2018-02-19T13:44:37.350Z,3.28
2018-02-19T13:47:39.317Z,3.33
2018-02-19T13:50:41.278Z,3.32
2018-02-19T13:53:43.263Z,3.32
2018-02-19T13:56:45.210Z,3.27
2018-02-19T13:59:47.166Z,3.40
2018-02-19T14:02:49.145Z,3.16
2018-02-19T14:05:51.115Z,3.18
2018-02-19T14:08:53.097Z,2.99
2018-02-19T14:11:55.461Z,2.97
2018-02-19T14:14:57.410Z,3.02
2018-02-19T14:17:59.409Z,2.90
2018-02-19T14:21:01.434Z,2.95
2018-02-19T14:24:03.444Z,2.88
2018-02-19T14:27:05.377Z,2.91
2018-02-19T14:30:07.378Z,2.94
2018-02-19T14:33:09.319Z,2.86
2018-02-19T14:36:11.295Z,2.77
2018-02-19T14:39:13.224Z,2.80
2018-02-19T14:42:15.216Z,2.87
2018-02-19T14:45:17.201Z,2.74
2018-02-19T14:48:19.250Z,2.67
2018-02-19T14:51:21.237Z,2.74
2018-02-19T14:54:23.224Z,2.80
2018-02-19T14:57:26.299Z,2.96
2018-02-19T15:00:28.642Z,2.89
2018-02-19T15:03:30.631Z,2.76
2018-02-19T15:06:32.592Z,3.01
2018-02-19T15:09:34.599Z,2.97
2018-02-19T15:12:36.622Z,2.88
2018-02-19T15:15:38.579Z,2.84
2018-02-19T15:18:40.562Z,2.88
2018-02-19T15:21:42.518Z,2.84
2018-02-19T15:24:44.500Z,2.90
2018-02-19T15:27:46.445Z,3.12
2018-02-19T15:30:48.448Z,3.15
2018-02-19T15:33:50.372Z,3.34
2018-02-19T15:36:52.296Z,3.27
2018-02-19T15:39:54.338Z,3.00
2018-02-19T15:42:57.487Z,3.12
2018-02-19T15:45:59.494Z,3.03
2018-02-19T15:49:01.453Z,3.08
2018-02-19T15:52:03.445Z,2.99
2018-02-19T15:55:05.353Z,3.13
2018-02-19T15:58:07.360Z,3.14
2018-02-19T16:01:09.300Z,3.20
2018-02-19T16:04:11.294Z,3.05
2018-02-19T16:07:13.347Z,2.96
2018-02-19T16:10:15.329Z,2.94
2018-02-19T16:13:17.438Z,3.04
2018-02-19T16:16:19.520Z,3.18
2018-02-19T16:19:21.543Z,2.94
2018-02-19T16:22:23.594Z,2.96
2018-02-19T16:25:25.657Z,3.19
2018-02-19T16:28:27.714Z,3.05
2018-02-19T16:31:29.701Z,2.98
2018-02-19T16:34:31.662Z,3.02
2018-02-19T16:37:33.621Z,3.02
2018-02-19T16:40:35.626Z,3.08
2018-02-19T16:43:37.670Z,3.02
2018-02-19T16:46:39.855Z,2.93
2018-02-19T16:49:41.905Z,2.80
2018-02-19T16:52:43.863Z,2.74
2018-02-19T16:55:45.812Z,2.90
2018-02-19T16:58:47.739Z,2.94
2018-02-19T17:01:50.161Z,2.85
2018-02-19T17:04:52.213Z,2.69
2018-02-19T17:07:54.154Z,2.87
2018-02-19T17:10:56.650Z,2.98
2018-02-19T17:13:58.633Z,2.90
2018-02-19T17:17:00.610Z,2.87
2018-02-19T17:20:02.586Z,3.05
2018-02-19T17:23:04.564Z,3.07
2018-02-19T17:26:06.537Z,2.90
2018-02-19T17:29:08.474Z,2.67
2018-02-19T17:32:10.553Z,2.81
2018-02-19T17:35:12.569Z,2.79
2018-02-19T17:38:15.007Z,2.76
2018-02-19T17:41:16.941Z,2.84
2018-02-19T17:44:18.930Z,3.05
2018-02-19T17:47:20.879Z,3.12
2018-02-19T17:50:22.885Z,3.13
2018-02-19T17:53:24.781Z,2.84
2018-02-19T17:56:28.249Z,2.84
2018-02-19T17:59:30.177Z,2.86
2018-02-19T18:02:32.161Z,2.89
2018-02-19T18:05:34.129Z,2.95
2018-02-19T18:08:36.089Z,2.84
2018-02-19T18:11:38.054Z,2.89
2018-02-19T18:14:40.017Z,2.89
2018-02-19T18:17:42.015Z,2.99
2018-02-19T18:20:44.012Z,3.17
2018-02-19T18:23:46.004Z,3.09
2018-02-19T18:26:47.966Z,2.98
2018-02-19T18:29:49.931Z,3.02
2018-02-19T18:32:51.925Z,2.87
2018-02-19T18:35:54.327Z,2.92
2018-02-19T18:38:57.467Z,2.69
2018-02-19T18:41:59.458Z,2.60
2018-02-19T18:45:01.429Z,2.72
2018-02-19T18:48:03.510Z,2.68
2018-02-19T18:51:05.641Z,2.77
2018-02-19T18:54:07.614Z,2.55
2018-02-19T18:57:09.679Z,2.41
2018-02-19T19:00:11.647Z,2.52
2018-02-19T19:03:13.750Z,2.44
2018-02-19T19:06:15.685Z,2.56
2018-02-19T19:09:17.655Z,2.48
2018-02-19T19:12:19.643Z,2.32
2018-02-19T19:15:21.649Z,2.31
2018-02-19T19:18:23.562Z,2.47
2018-02-19T19:21:26.671Z,2.40
2018-02-19T19:24:28.625Z,2.72
2018-02-19T19:27:30.709Z,2.82
2018-02-19T19:30:32.665Z,2.77
2018-02-19T19:33:34.680Z,2.72
2018-02-19T19:36:36.715Z,2.77
2018-02-19T19:39:38.679Z,2.92
2018-02-19T19:42:40.614Z,2.73
2018-02-19T19:45:42.566Z,2.73
2018-02-19T19:48:44.577Z,2.61
2018-02-19T19:51:46.526Z,2.90
2018-02-19T19:54:48.520Z,3.13
2018-02-19T19:57:50.884Z,3.11
2018-02-19T20:00:52.814Z,2.57
2018-02-19T20:03:54.782Z,2.63
2018-02-19T20:06:57.449Z,2.72
2018-02-19T20:12:41.915Z,2.35
2018-02-19T20:15:45.386Z,2.18
2018-02-19T20:18:48.614Z,2.11
2018-02-19T20:21:51.925Z,2.17
2018-02-19T20:24:55.251Z,2.16
2018-02-19T20:27:58.420Z,2.16
2018-02-19T20:31:01.637Z,2.30
2018-02-19T20:34:04.934Z,2.29
2018-02-19T20:37:08.213Z,2.16
2018-02-19T20:40:11.415Z,2.36
2018-02-19T20:43:14.662Z,2.25
2018-02-19T20:46:17.968Z,2.15
2018-02-19T20:49:21.124Z,2.28
2018-02-19T20:52:24.356Z,2.27
2018-02-19T20:55:28.674Z,2.46
2018-02-19T20:58:32.007Z,2.37
2018-02-19T21:01:35.211Z,2.17
2018-02-19T21:04:38.401Z,2.17
2018-02-19T21:07:41.605Z,2.26
2018-02-19T21:10:44.860Z,2.52
2018-02-19T21:13:48.055Z,2.68
2018-02-19T21:16:51.280Z,2.69
2018-02-19T21:19:54.451Z,2.58
2018-02-19T21:22:58.910Z,2.47
2018-02-19T21:26:02.258Z,2.51
2018-02-19T21:29:05.572Z,2.43
2018-02-19T21:32:08.812Z,2.69
2018-02-19T21:35:12.058Z,2.47
2018-02-19T21:38:15.360Z,2.63
2018-02-19T21:41:18.539Z,2.67
2018-02-19T21:44:21.865Z,2.75
2018-02-19T21:47:25.303Z,2.81
2018-02-19T21:50:28.535Z,2.63
2018-02-19T21:53:31.850Z,2.72
2018-02-19T21:56:35.021Z,2.76
2018-02-19T21:59:38.882Z,2.75
2018-02-19T22:02:42.092Z,2.85
2018-02-19T22:05:45.649Z,2.94
2018-02-19T22:08:48.933Z,2.99
2018-02-19T22:11:52.246Z,3.01
2018-02-19T22:14:55.538Z,3.06
2018-02-19T22:17:58.826Z,2.99
2018-02-19T22:21:02.139Z,2.85
2018-02-19T22:24:05.443Z,2.76
2018-02-19T22:27:08.759Z,2.75
2018-02-19T22:30:12.031Z,2.72
2018-02-19T22:33:15.340Z,2.64
2018-02-19T22:36:18.506Z,2.58
2018-02-19T22:39:21.757Z,2.54
2018-02-19T22:42:25.026Z,2.39
2018-02-19T22:45:28.305Z,2.25
2018-02-19T22:48:31.599Z,2.25
2018-02-19T22:51:34.920Z,2.28
2018-02-19T22:54:38.209Z,2.24
2018-02-19T22:57:41.503Z,2.24
2018-02-19T23:00:44.792Z,2.18
2018-02-19T23:03:48.079Z,2.16
2018-02-19T23:06:51.310Z,2.13
2018-02-19T23:09:54.510Z,2.07
2018-02-19T23:12:57.770Z,2.00
2018-02-19T23:16:01.034Z,1.93
2018-02-19T23:19:04.275Z,1.88
2018-02-19T23:22:07.568Z,1.83
2018-02-19T23:25:10.860Z,1.78
2018-02-19T23:28:14.154Z,1.90
2018-02-19T23:31:17.617Z,1.91
2018-02-19T23:34:20.863Z,1.87
2018-02-19T23:37:24.226Z,1.84
2018-02-19T23:40:27.496Z,1.81
2018-02-19T23:43:30.773Z,1.62
2018-02-19T23:46:34.064Z,1.55
2018-02-19T23:49:37.344Z,1.52
2018-02-19T23:52:40.612Z,1.48
2018-02-19T23:55:43.945Z,1.55
2018-02-19T23:58:47.251Z,1.65
